createdAt,value
2024-02-18T00:01:23.513Z,109.97
2024-02-18T00:03:50.938Z,107.97
2024-02-18T00:06:18.328Z,102.30
2024-02-18T00:08:45.823Z,106.78
2024-02-18T00:11:14.225Z,102.43
2024-02-18T00:13:41.661Z,103.68
2024-02-18T00:16:09.062Z,110.63
2024-02-18T00:18:37.512Z,113.45
2024-02-18T00:21:05.275Z,100.38
2024-02-18T00:23:32.482Z,106.35
2024-02-18T00:26:00.728Z,110.18
2024-02-18T00:28:28.002Z,112.70
2024-02-18T00:30:55.436Z,113.00
2024-02-18T00:33:23.092Z,113.93
2024-02-18T00:35:50.494Z,109.50
2024-02-18T00:38:17.895Z,127.13
2024-02-18T00:40:45.463Z,116.45
2024-02-18T00:43:12.716Z,125.70
2024-02-18T00:45:40.228Z,122.78
2024-02-18T00:48:08.016Z,113.78
2024-02-18T00:50:35.562Z,111.05
2024-02-18T00:53:02.844Z,112.32
2024-02-18T00:55:29.963Z,96.05
2024-02-18T00:57:57.295Z,101.38
2024-02-18T01:00:24.904Z,103.68
2024-02-18T01:02:52.159Z,104.55
2024-02-18T01:05:19.976Z,99.93
2024-02-18T01:07:47.271Z,101.43
2024-02-18T01:10:14.808Z,104.60
2024-02-18T01:12:42.193Z,100.60
2024-02-18T01:15:09.804Z,99.18
2024-02-18T01:17:37.213Z,91.20
2024-02-18T01:20:05.766Z,94.07
2024-02-18T01:22:33.112Z,96.45
2024-02-18T01:25:00.584Z,100.97
2024-02-18T01:27:28.102Z,93.40
2024-02-18T01:29:55.410Z,102.72
2024-02-18T01:32:23.186Z,97.18
2024-02-18T01:34:50.770Z,101.07
2024-02-18T01:37:18.011Z,92.15
2024-02-18T01:39:45.463Z,102.28
2024-02-18T01:42:12.723Z,102.72
2024-02-18T01:44:39.866Z,97.68
2024-02-18T01:47:07.178Z,95.57
2024-02-18T01:49:35.146Z,102.60
2024-02-18T01:52:03.290Z,94.97
2024-02-18T01:54:34.764Z,89.18
2024-02-18T01:57:03.122Z,93.63
2024-02-18T01:59:31.773Z,88.88
2024-02-18T02:01:59.366Z,90.88
2024-02-18T02:04:28.297Z,94.97
2024-02-18T02:06:56.136Z,94.82
2024-02-18T02:09:23.551Z,83.55
2024-02-18T02:11:51.008Z,92.65
2024-02-18T02:14:18.403Z,91.53
2024-02-18T02:16:45.790Z,87.10
2024-02-18T02:19:13.145Z,90.53
2024-02-18T02:21:40.486Z,93.38
2024-02-18T02:24:08.351Z,86.22
2024-02-18T02:26:37.694Z,90.85
2024-02-18T02:29:16.722Z,85.03
2024-02-18T02:31:46.007Z,78.93
2024-02-18T02:34:14.638Z,92.65
2024-02-18T02:36:42.444Z,94.10
2024-02-18T02:39:09.733Z,89.22
2024-02-18T02:41:36.803Z,90.40
2024-02-18T02:44:04.084Z,92.88
2024-02-18T02:46:31.412Z,90.88
2024-02-18T02:48:58.892Z,91.15
2024-02-18T02:51:26.182Z,86.47
2024-02-18T02:53:53.415Z,87.38
2024-02-18T02:56:20.632Z,92.05
2024-02-18T02:58:48.180Z,96.88
2024-02-18T03:01:15.541Z,88.85
2024-02-18T03:03:43.105Z,88.70
2024-02-18T03:06:10.489Z,87.80
2024-02-18T03:08:37.778Z,97.88
2024-02-18T03:11:05.154Z,86.35
2024-02-18T03:13:34.268Z,98.10
2024-02-18T03:16:01.892Z,93.28
2024-02-18T03:18:29.645Z,96.72
2024-02-18T03:20:57.019Z,99.20
2024-02-18T03:23:24.225Z,86.80
2024-02-18T03:25:51.491Z,94.15
2024-02-18T03:28:18.720Z,84.95
2024-02-18T03:30:52.038Z,88.47
2024-02-18T03:33:19.820Z,92.00
2024-02-18T03:35:47.452Z,88.80
2024-02-18T03:38:14.636Z,87.72
2024-02-18T03:40:42.068Z,84.28
2024-02-18T03:43:09.379Z,88.20
2024-02-18T03:45:36.694Z,92.47
2024-02-18T03:48:04.041Z,90.10
2024-02-18T03:50:31.328Z,92.85
2024-02-18T03:52:58.569Z,86.35
2024-02-18T03:55:28.149Z,83.07
2024-02-18T03:57:55.400Z,86.43
2024-02-18T04:00:22.777Z,79.90
2024-02-18T04:02:49.925Z,91.32
2024-02-18T04:05:17.135Z,81.93
2024-02-18T04:07:44.331Z,85.72
2024-02-18T04:10:11.870Z,81.13
2024-02-18T04:12:39.244Z,87.22
2024-02-18T04:15:06.662Z,84.93
2024-02-18T04:17:34.426Z,85.65
2024-02-18T04:20:01.792Z,87.05
2024-02-18T04:22:29.148Z,85.57
2024-02-18T04:24:56.534Z,88.55
2024-02-18T04:27:23.887Z,81.07
2024-02-18T04:29:51.084Z,89.72
2024-02-18T04:32:18.325Z,88.93
2024-02-18T04:34:46.008Z,85.30
2024-02-18T04:37:13.449Z,88.32
2024-02-18T04:39:41.299Z,89.20
2024-02-18T04:42:08.731Z,78.07
2024-02-18T04:44:35.980Z,91.70
2024-02-18T04:47:03.196Z,90.50
2024-02-18T04:49:30.624Z,83.60
2024-02-18T04:51:57.967Z,80.90
2024-02-18T04:54:25.232Z,77.88
2024-02-18T04:56:52.479Z,79.13
2024-02-18T04:59:19.588Z,92.65
2024-02-18T05:01:50.093Z,92.13
2024-02-18T05:04:17.530Z,82.45
2024-02-18T05:06:48.508Z,84.32
2024-02-18T05:09:16.045Z,91.47
2024-02-18T05:11:43.439Z,80.28
2024-02-18T05:14:10.583Z,89.90
2024-02-18T05:16:38.652Z,85.95
2024-02-18T05:19:05.911Z,93.13
2024-02-18T05:21:33.940Z,90.35
2024-02-18T05:24:01.231Z,78.65
2024-02-18T05:26:30.464Z,82.60
2024-02-18T05:28:57.945Z,84.00
2024-02-18T05:31:25.889Z,80.95
2024-02-18T05:33:53.919Z,81.88
2024-02-18T05:36:24.251Z,84.63
2024-02-18T05:38:51.486Z,80.15
2024-02-18T05:41:19.010Z,82.57
2024-02-18T05:43:46.317Z,87.88
2024-02-18T05:46:13.750Z,89.20
2024-02-18T05:48:41.739Z,80.65
2024-02-18T05:51:09.036Z,90.28
2024-02-18T05:53:36.310Z,92.65
2024-02-18T05:56:03.695Z,88.00
2024-02-18T05:58:30.978Z,92.18
2024-02-18T06:01:00.946Z,88.90
2024-02-18T06:03:29.921Z,83.20
2024-02-18T06:06:09.795Z,85.68
2024-02-18T06:08:50.790Z,79.97
2024-02-18T06:11:20.896Z,91.20
2024-02-18T06:13:48.746Z,85.30
2024-02-18T06:16:16.454Z,84.75
2024-02-18T06:18:44.213Z,96.47
2024-02-18T06:21:19.610Z,82.13
2024-02-18T06:23:46.858Z,93.80
2024-02-18T06:26:14.321Z,94.80
2024-02-18T06:28:41.616Z,88.90
2024-02-18T06:31:08.970Z,85.30
2024-02-18T06:33:36.358Z,86.47
2024-02-18T06:36:03.840Z,91.15
2024-02-18T06:38:31.074Z,84.85
2024-02-18T06:40:58.845Z,83.80
2024-02-18T06:43:26.160Z,86.93
2024-02-18T06:45:53.416Z,84.63
2024-02-18T06:48:20.944Z,102.53
2024-02-18T06:50:48.186Z,92.07
2024-02-18T06:53:15.873Z,88.70
2024-02-18T06:55:43.841Z,85.50
2024-02-18T06:58:12.464Z,86.85
2024-02-18T07:00:39.808Z,85.60
2024-02-18T07:03:07.497Z,82.85
2024-02-18T07:05:34.952Z,90.22
2024-02-18T07:08:05.365Z,81.68
2024-02-18T07:10:32.674Z,93.97
2024-02-18T07:12:59.939Z,85.78
2024-02-18T07:15:27.995Z,87.05
2024-02-18T07:17:55.507Z,83.22
2024-02-18T07:20:23.088Z,88.85
2024-02-18T07:22:50.204Z,81.03
2024-02-18T07:25:17.513Z,80.75
2024-02-18T07:27:44.732Z,92.97
2024-02-18T07:30:12.330Z,83.53
2024-02-18T07:32:39.533Z,85.50
2024-02-18T07:35:07.006Z,76.35
2024-02-18T07:37:34.246Z,88.25
2024-02-18T07:40:01.514Z,88.85
2024-02-18T07:42:29.072Z,82.13
2024-02-18T07:44:56.350Z,82.63
2024-02-18T07:47:23.550Z,80.38
2024-02-18T07:49:50.853Z,84.75
2024-02-18T07:52:18.050Z,83.93
2024-02-18T07:54:46.166Z,94.25
2024-02-18T07:57:13.775Z,88.45
2024-02-18T07:59:40.974Z,83.20
2024-02-18T08:02:08.399Z,83.75
2024-02-18T08:04:35.795Z,90.03
2024-02-18T08:07:04.788Z,88.28
2024-02-18T08:09:32.083Z,84.75
2024-02-18T08:11:59.415Z,81.88
2024-02-18T08:14:26.587Z,79.50
2024-02-18T08:16:55.097Z,89.07
2024-02-18T08:19:22.377Z,82.68
2024-02-18T08:21:49.735Z,76.93
2024-02-18T08:24:16.905Z,79.78
2024-02-18T08:26:44.158Z,80.63
2024-02-18T08:29:11.330Z,80.13
2024-02-18T08:31:39.282Z,90.07
2024-02-18T08:34:06.988Z,78.03
2024-02-18T08:36:34.356Z,80.40
2024-02-18T08:39:01.614Z,93.65
2024-02-18T08:41:30.858Z,71.78
2024-02-18T08:43:58.112Z,81.53
2024-02-18T08:46:25.570Z,74.30
2024-02-18T08:48:53.144Z,83.60
2024-02-18T08:51:20.461Z,77.63
2024-02-18T08:53:47.691Z,78.82
2024-02-18T08:56:15.298Z,88.95
2024-02-18T08:58:42.545Z,111.00
2024-02-18T09:01:12.192Z,100.80
2024-02-18T09:03:39.678Z,106.63
2024-02-18T09:06:07.135Z,115.60
2024-02-18T09:08:34.479Z,106.50
2024-02-18T09:11:01.842Z,108.28
2024-02-18T09:13:29.258Z,107.55
2024-02-18T09:15:57.539Z,109.75
2024-02-18T09:18:27.365Z,111.70
2024-02-18T09:20:56.317Z,106.10
2024-02-18T09:23:23.596Z,105.13
2024-02-18T09:25:50.810Z,107.80
2024-02-18T09:28:19.703Z,104.03
2024-02-18T09:30:47.099Z,103.30
2024-02-18T09:33:14.441Z,109.18
2024-02-18T09:35:41.740Z,112.43
2024-02-18T09:38:10.712Z,113.88
2024-02-18T09:40:38.154Z,104.15
2024-02-18T09:43:05.721Z,104.95
2024-02-18T09:45:34.360Z,98.22
2024-02-18T09:48:03.179Z,101.30
2024-02-18T09:50:32.513Z,98.78
2024-02-18T09:53:01.308Z,96.07
2024-02-18T09:55:28.748Z,90.28
2024-02-18T09:57:56.044Z,93.65
2024-02-18T10:00:23.947Z,98.25
2024-02-18T10:02:52.775Z,96.03
2024-02-18T10:05:20.363Z,100.97
2024-02-18T10:08:00.282Z,95.28
2024-02-18T10:10:27.433Z,99.95
2024-02-18T10:12:54.795Z,96.38
2024-02-18T10:15:22.379Z,91.13
2024-02-18T10:17:50.564Z,87.82
2024-02-18T10:20:17.700Z,86.30
2024-02-18T10:22:45.009Z,87.05
2024-02-18T10:25:12.740Z,98.45
2024-02-18T10:27:40.612Z,80.05
2024-02-18T10:30:12.657Z,86.07
2024-02-18T10:32:40.676Z,76.60
2024-02-18T10:35:08.487Z,84.25
2024-02-18T10:37:43.726Z,78.82
2024-02-18T10:40:16.728Z,71.97
2024-02-18T10:42:45.343Z,72.57
2024-02-18T10:45:13.499Z,70.97
2024-02-18T10:47:41.709Z,79.97
2024-02-18T10:50:10.851Z,85.55
2024-02-18T10:52:48.888Z,80.03
2024-02-18T10:55:22.611Z,86.05
2024-02-18T10:57:59.817Z,82.57
2024-02-18T11:00:28.648Z,84.93
2024-02-18T11:03:12.343Z,84.70
2024-02-18T11:05:40.147Z,80.88
2024-02-18T11:08:09.090Z,84.00
2024-02-18T11:10:39.439Z,85.70
2024-02-18T11:13:07.708Z,86.90
2024-02-18T11:15:36.553Z,88.20
2024-02-18T11:18:04.360Z,83.65
2024-02-18T11:20:32.173Z,78.38
2024-02-18T11:23:00.047Z,69.53
2024-02-18T11:25:27.449Z,83.82
2024-02-18T11:27:55.706Z,79.25
2024-02-18T11:30:23.173Z,88.38
2024-02-18T11:32:50.821Z,91.90
2024-02-18T11:35:20.871Z,81.13
2024-02-18T11:37:49.749Z,84.65
2024-02-18T11:40:20.091Z,80.97
2024-02-18T11:42:48.386Z,75.55
2024-02-18T11:45:21.213Z,88.57
2024-02-18T11:47:52.818Z,80.22
2024-02-18T11:50:21.056Z,78.93
2024-02-18T11:52:49.286Z,81.93
2024-02-18T11:55:23.352Z,76.93
2024-02-18T11:57:51.000Z,79.43
2024-02-18T12:00:19.871Z,78.72
2024-02-18T12:02:52.215Z,82.32
2024-02-18T12:05:22.339Z,87.28
2024-02-18T12:07:51.548Z,84.22
2024-02-18T12:10:19.113Z,74.20
2024-02-18T12:12:46.763Z,77.60
2024-02-18T12:15:24.650Z,77.50
2024-02-18T12:17:54.966Z,76.22
2024-02-18T12:20:29.187Z,77.35
2024-02-18T12:22:57.059Z,76.70
2024-02-18T12:25:24.415Z,74.25
2024-02-18T12:27:52.197Z,71.18
2024-02-18T12:30:24.052Z,60.20
2024-02-18T12:32:53.164Z,64.60
2024-02-18T12:35:22.275Z,59.70
2024-02-18T12:37:49.775Z,58.65
2024-02-18T12:40:17.418Z,56.03
2024-02-18T12:42:57.087Z,59.72
2024-02-18T12:48:05.088Z,59.58
2024-02-18T12:50:32.558Z,56.25
2024-02-18T12:53:00.460Z,56.03
2024-02-18T12:55:29.367Z,54.63
2024-02-18T12:57:56.581Z,57.20
2024-02-18T13:00:23.793Z,53.17
2024-02-18T13:02:55.980Z,63.78
2024-02-18T13:05:24.767Z,53.28
2024-02-18T13:07:55.726Z,62.80
2024-02-18T13:10:23.103Z,50.60
2024-02-18T13:12:53.872Z,52.50
2024-02-18T13:15:21.407Z,56.75
2024-02-18T13:17:52.893Z,48.38
2024-02-18T13:20:20.516Z,54.03
2024-02-18T13:22:51.589Z,54.45
2024-02-18T13:25:19.581Z,55.33
2024-02-18T13:27:47.511Z,59.15
2024-02-18T13:30:17.423Z,58.75
2024-02-18T13:32:49.619Z,47.83
2024-02-18T13:35:17.335Z,64.43
2024-02-18T13:37:44.910Z,54.85
2024-02-18T13:40:12.566Z,53.88
2024-02-18T13:42:40.326Z,60.00
2024-02-18T13:45:07.845Z,58.67
2024-02-18T13:47:34.996Z,66.13
2024-02-18T13:50:02.628Z,63.10
2024-02-18T13:52:29.938Z,64.25
2024-02-18T13:54:57.241Z,71.32
2024-02-18T13:57:24.504Z,60.97
2024-02-18T13:59:51.983Z,61.78
2024-02-18T14:02:19.537Z,63.92
2024-02-18T14:04:47.065Z,67.85
2024-02-18T14:07:18.463Z,61.70
2024-02-18T14:09:45.851Z,62.58
2024-02-18T14:12:13.980Z,71.18
2024-02-18T14:14:42.950Z,65.75
2024-02-18T14:17:10.242Z,69.00
2024-02-18T14:19:37.495Z,60.55
2024-02-18T14:22:04.850Z,59.85
2024-02-18T14:24:32.387Z,56.22
2024-02-18T14:26:59.844Z,55.35
2024-02-18T14:29:27.160Z,53.33
2024-02-18T14:31:54.445Z,57.83
2024-02-18T14:34:21.758Z,72.28
2024-02-18T14:36:49.669Z,73.25
2024-02-18T14:39:17.247Z,77.97
2024-02-18T14:41:44.430Z,70.60
2024-02-18T14:44:11.648Z,67.18
2024-02-18T14:46:38.826Z,73.40
2024-02-18T14:49:06.150Z,81.10
2024-02-18T14:51:34.507Z,76.07
2024-02-18T14:54:03.196Z,75.97
2024-02-18T14:56:30.654Z,81.38
2024-02-18T14:58:57.912Z,79.38
2024-02-18T15:01:25.111Z,85.70
2024-02-18T15:03:52.464Z,83.38
2024-02-18T15:06:19.940Z,86.22
2024-02-18T15:08:47.615Z,89.47
2024-02-18T15:11:18.226Z,91.28
2024-02-18T15:13:45.752Z,82.18
2024-02-18T15:16:14.278Z,84.57
2024-02-18T15:18:41.987Z,87.68
2024-02-18T15:21:10.909Z,91.00
2024-02-18T15:23:38.316Z,92.68
2024-02-18T15:26:05.817Z,93.82
2024-02-18T15:28:36.450Z,85.82
2024-02-18T15:31:08.732Z,93.60
2024-02-18T15:33:36.234Z,93.88
2024-02-18T15:36:03.637Z,97.30
2024-02-18T15:38:31.042Z,90.05
2024-02-18T15:41:00.193Z,95.60
2024-02-18T15:43:28.934Z,104.28
2024-02-18T15:45:56.265Z,102.28
2024-02-18T15:48:23.765Z,111.65
2024-02-18T15:50:51.619Z,117.13
2024-02-18T15:53:18.819Z,127.80
2024-02-18T15:55:53.895Z,116.95
2024-02-18T15:58:28.677Z,127.35
2024-02-18T16:00:55.962Z,121.88
2024-02-18T16:03:23.725Z,127.22
2024-02-18T16:05:51.600Z,127.28
2024-02-18T16:08:19.807Z,118.03
2024-02-18T16:10:49.795Z,125.35
2024-02-18T16:13:17.706Z,132.18
2024-02-18T16:15:45.956Z,119.22
2024-02-18T16:18:18.539Z,117.00
2024-02-18T16:20:45.918Z,127.63
2024-02-18T16:23:13.117Z,130.32
2024-02-18T16:25:40.315Z,132.15
2024-02-18T16:28:07.621Z,131.15
2024-02-18T16:30:34.890Z,129.88
2024-02-18T16:33:03.383Z,123.28
2024-02-18T16:35:30.739Z,126.38
2024-02-18T16:37:58.046Z,127.07
2024-02-18T16:40:25.577Z,131.93
2024-02-18T16:42:53.015Z,129.75
2024-02-18T16:45:20.488Z,137.43
2024-02-18T16:47:47.672Z,149.20
2024-02-18T16:50:14.984Z,136.07
2024-02-18T16:52:42.144Z,133.23
2024-02-18T16:55:09.561Z,133.38
2024-02-18T16:57:36.864Z,135.55
2024-02-18T17:00:06.024Z,125.18
2024-02-18T17:02:33.270Z,126.65
2024-02-18T17:05:05.639Z,120.80
2024-02-18T17:07:32.970Z,128.05
2024-02-18T17:10:00.302Z,124.43
2024-02-18T17:12:27.642Z,118.93
2024-02-18T17:14:54.876Z,122.40
2024-02-18T17:17:22.394Z,122.40
2024-02-18T17:19:49.921Z,130.98
2024-02-18T17:22:17.387Z,125.43
2024-02-18T17:24:47.169Z,124.88
2024-02-18T17:27:14.475Z,122.32
2024-02-18T17:29:44.673Z,128.63
2024-02-18T17:32:11.872Z,117.00
2024-02-18T17:34:39.169Z,123.88
2024-02-18T17:37:06.611Z,123.88
2024-02-18T17:39:33.965Z,125.68
2024-02-18T17:42:01.307Z,127.05
2024-02-18T17:44:28.667Z,120.60
2024-02-18T17:46:56.575Z,120.72
2024-02-18T17:49:24.120Z,129.73
2024-02-18T17:51:52.785Z,126.85
2024-02-18T17:54:20.070Z,128.98
2024-02-18T17:56:47.924Z,124.88
2024-02-18T17:59:15.066Z,123.10
2024-02-18T18:01:42.440Z,128.25
2024-02-18T18:04:10.090Z,127.85
2024-02-18T18:06:38.756Z,118.82
2024-02-18T18:09:06.860Z,123.70
2024-02-18T18:11:34.273Z,125.57
2024-02-18T18:14:01.690Z,116.40
2024-02-18T18:16:29.038Z,120.60
2024-02-18T18:18:58.993Z,131.15
2024-02-18T18:21:27.390Z,131.02
2024-02-18T18:23:58.415Z,134.23
2024-02-18T18:26:26.479Z,124.25
2024-02-18T18:28:53.862Z,125.32
2024-02-18T18:31:21.176Z,129.75
2024-02-18T18:33:49.712Z,132.38
2024-02-18T18:36:17.114Z,135.43
2024-02-18T18:38:44.191Z,130.80
2024-02-18T18:41:11.552Z,127.50
2024-02-18T18:43:39.029Z,135.43
2024-02-18T18:46:06.262Z,126.72
2024-02-18T18:48:34.488Z,134.55
2024-02-18T18:51:01.837Z,132.77
2024-02-18T18:53:30.751Z,136.77
2024-02-18T18:55:58.160Z,127.15
2024-02-18T18:58:26.480Z,135.18
2024-02-18T19:00:54.299Z,140.00
2024-02-18T19:03:21.560Z,138.98
2024-02-18T19:05:48.895Z,131.68
2024-02-18T19:08:16.070Z,140.40
2024-02-18T19:10:44.275Z,123.60
2024-02-18T19:13:23.562Z,133.30
2024-02-18T19:15:58.925Z,125.38
2024-02-18T19:18:26.335Z,128.02
2024-02-18T19:20:54.203Z,122.00
2024-02-18T19:23:22.163Z,128.85
2024-02-18T19:25:49.400Z,121.13
2024-02-18T19:28:16.862Z,119.28
2024-02-18T19:30:44.508Z,113.53
2024-02-18T19:33:11.855Z,116.55
2024-02-18T19:35:39.975Z,116.47
2024-02-18T19:38:07.507Z,118.35
2024-02-18T19:40:34.971Z,117.05
2024-02-18T19:43:02.364Z,120.07
2024-02-18T19:45:29.676Z,112.03
2024-02-18T19:47:58.515Z,112.82
2024-02-18T19:50:26.289Z,117.47
2024-02-18T19:52:53.862Z,121.40
2024-02-18T19:55:21.108Z,110.18
2024-02-18T19:57:50.784Z,122.28
2024-02-18T20:00:18.372Z,128.70
2024-02-18T20:02:45.858Z,120.63
2024-02-18T20:05:13.277Z,122.82
2024-02-18T20:07:40.734Z,129.65
2024-02-18T20:10:08.364Z,127.80
2024-02-18T20:12:37.336Z,127.00
2024-02-18T20:15:05.304Z,121.22
2024-02-18T20:17:32.773Z,119.75
2024-02-18T20:20:01.383Z,120.07
2024-02-18T20:22:28.765Z,121.57
2024-02-18T20:24:56.543Z,116.97
2024-02-18T20:27:23.843Z,119.55
2024-02-18T20:29:52.033Z,116.85
2024-02-18T20:32:19.284Z,112.13
2024-02-18T20:34:48.392Z,110.97
2024-02-18T20:37:15.945Z,107.97
2024-02-18T20:39:43.766Z,114.00
2024-02-18T20:42:11.173Z,111.82
2024-02-18T20:44:38.664Z,117.40
2024-02-18T20:47:08.139Z,112.45
2024-02-18T20:49:37.080Z,110.45
2024-02-18T20:52:05.901Z,102.80
2024-02-18T20:54:34.301Z,104.53
2024-02-18T20:57:01.888Z,110.13
2024-02-18T20:59:29.864Z,107.95
2024-02-18T21:01:58.196Z,120.18
2024-02-18T21:04:27.019Z,114.50
2024-02-18T21:06:54.909Z,114.38
2024-02-18T21:09:23.817Z,115.80
2024-02-18T21:11:51.189Z,103.18
2024-02-18T21:14:21.343Z,109.75
2024-02-18T21:16:50.072Z,107.65
2024-02-18T21:19:18.848Z,112.75
2024-02-18T21:21:46.331Z,104.70
2024-02-18T21:24:13.718Z,108.72
2024-02-18T21:26:40.972Z,105.90
2024-02-18T21:29:08.246Z,102.65
2024-02-18T21:31:35.564Z,105.15
2024-02-18T21:34:03.086Z,102.32
2024-02-18T21:36:30.478Z,108.97
2024-02-18T21:38:58.144Z,110.60
2024-02-18T21:41:25.313Z,106.82
2024-02-18T21:43:52.987Z,111.82
2024-02-18T21:46:20.331Z,105.32
2024-02-18T21:48:47.889Z,105.75
2024-02-18T21:51:15.351Z,103.13
2024-02-18T21:53:45.194Z,101.30
2024-02-18T21:56:13.010Z,101.93
2024-02-18T21:58:40.402Z,104.53
2024-02-18T22:01:09.320Z,107.22
2024-02-18T22:03:37.118Z,108.45
2024-02-18T22:06:04.720Z,104.15
2024-02-18T22:08:32.255Z,105.22
2024-02-18T22:10:59.591Z,107.07
2024-02-18T22:13:26.892Z,100.85
2024-02-18T22:15:54.079Z,102.45
2024-02-18T22:18:21.485Z,105.68
2024-02-18T22:20:48.763Z,106.90
2024-02-18T22:23:15.987Z,105.57
2024-02-18T22:25:43.349Z,101.75
2024-02-18T22:28:11.371Z,105.75
2024-02-18T22:30:39.153Z,105.13
2024-02-18T22:33:08.538Z,105.05
2024-02-18T22:35:35.935Z,95.13
2024-02-18T22:38:03.270Z,99.68
2024-02-18T22:40:30.511Z,103.88
2024-02-18T22:42:57.887Z,105.85
2024-02-18T22:45:27.772Z,102.57
2024-02-18T22:47:56.789Z,101.55
2024-02-18T22:50:24.394Z,107.38
2024-02-18T22:52:52.464Z,108.38
2024-02-18T22:55:20.750Z,102.95
2024-02-18T22:57:48.075Z,95.68
2024-02-18T23:00:20.093Z,95.88
2024-02-18T23:02:47.756Z,99.18
2024-02-18T23:05:15.728Z,102.50
2024-02-18T23:07:43.227Z,99.97
2024-02-18T23:10:10.578Z,93.47
2024-02-18T23:12:38.063Z,93.93
2024-02-18T23:15:05.539Z,94.40
2024-02-18T23:17:32.738Z,98.35
2024-02-18T23:20:00.067Z,90.78
2024-02-18T23:22:29.387Z,100.90
2024-02-18T23:24:56.675Z,91.28
2024-02-18T23:27:24.070Z,92.80
2024-02-18T23:29:51.360Z,83.80
2024-02-18T23:32:18.648Z,89.20
2024-02-18T23:34:45.878Z,86.93
2024-02-18T23:37:13.505Z,84.18
2024-02-18T23:39:40.957Z,83.53
2024-02-18T23:42:08.325Z,75.75
2024-02-18T23:44:35.637Z,75.55
2024-02-18T23:47:02.994Z,77.03
2024-02-18T23:49:30.215Z,80.07
2024-02-18T23:51:57.687Z,76.80
2024-02-18T23:54:24.982Z,76.75
2024-02-18T23:56:52.203Z,75.82
2024-02-18T23:59:19.426Z,72.65
